createdAt,value
2022-09-06T00:00:29.268Z,11.32
2022-09-06T00:03:34.576Z,11.33
2022-09-06T00:06:40.924Z,11.33
2022-09-06T00:09:47.599Z,11.28
2022-09-06T00:12:52.890Z,11.27
2022-09-06T00:15:58.399Z,11.25
2022-09-06T00:19:03.640Z,11.14
2022-09-06T00:22:09.547Z,11.14
2022-09-06T00:25:16.331Z,11.12
2022-09-06T00:28:21.761Z,11.13
2022-09-06T00:31:28.883Z,11.13
2022-09-06T00:34:34.418Z,10.93
2022-09-06T00:37:39.779Z,10.96
2022-09-06T00:40:46.342Z,11.01
2022-09-06T00:43:51.781Z,11.02
2022-09-06T00:46:57.247Z,11.06
2022-09-06T00:50:03.135Z,11.08
2022-09-06T00:53:14.275Z,11.05
2022-09-06T00:56:20.918Z,10.96
2022-09-06T00:59:28.311Z,10.93
2022-09-06T01:02:33.613Z,10.94
2022-09-06T01:05:51.567Z,10.92
2022-09-06T01:09:05.917Z,10.88
2022-09-06T01:12:27.983Z,10.90
2022-09-06T01:15:42.777Z,10.77
2022-09-06T01:19:06.555Z,10.86
2022-09-06T01:22:38.382Z,10.85
2022-09-06T01:25:59.986Z,10.82
2022-09-06T01:29:08.731Z,10.74
2022-09-06T01:32:22.151Z,10.75
2022-09-06T01:35:34.003Z,10.59
2022-09-06T01:38:39.411Z,10.70
2022-09-06T01:41:44.641Z,10.71
2022-09-06T01:44:54.913Z,10.78
2022-09-06T01:48:10.550Z,10.73
2022-09-06T01:51:24.107Z,10.78
2022-09-06T01:54:42.701Z,10.70
2022-09-06T01:58:00.204Z,10.61
2022-09-06T02:01:13.011Z,10.73
2022-09-06T02:04:22.480Z,10.73
2022-09-06T02:07:31.110Z,10.72
2022-09-06T02:10:41.507Z,10.65
2022-09-06T02:13:50.117Z,10.63
2022-09-06T02:16:58.130Z,10.54
2022-09-06T02:20:09.508Z,10.55
2022-09-06T02:23:17.106Z,10.54
2022-09-06T02:26:26.455Z,10.55
2022-09-06T02:29:31.993Z,10.51
2022-09-06T02:32:43.495Z,10.52
2022-09-06T02:35:50.371Z,10.30
2022-09-06T02:38:56.478Z,10.47
2022-09-06T02:42:02.441Z,10.52
2022-09-06T02:45:08.958Z,10.45
2022-09-06T02:48:19.218Z,10.49
2022-09-06T02:51:24.698Z,10.40
2022-09-06T02:54:31.153Z,10.50
2022-09-06T02:57:36.673Z,10.53
2022-09-06T03:00:42.165Z,10.44
2022-09-06T03:03:49.125Z,10.41
2022-09-06T03:06:54.370Z,10.32
2022-09-06T03:10:00.282Z,10.34
2022-09-06T03:13:05.686Z,10.35
2022-09-06T03:16:12.899Z,10.39
2022-09-06T03:19:20.206Z,10.41
2022-09-06T03:22:25.495Z,10.41
2022-09-06T03:25:30.814Z,10.40
2022-09-06T03:28:36.458Z,10.38
2022-09-06T03:31:41.700Z,10.31
2022-09-06T03:34:48.282Z,10.18
2022-09-06T03:37:53.578Z,10.00
2022-09-06T03:40:59.253Z,10.02
2022-09-06T03:44:04.780Z,10.17
2022-09-06T03:47:10.069Z,10.31
2022-09-06T03:50:17.142Z,10.31
2022-09-06T03:53:24.529Z,10.04
2022-09-06T03:56:30.067Z,10.11
2022-09-06T03:59:35.586Z,10.16
2022-09-06T04:02:40.815Z,10.25
2022-09-06T04:05:48.389Z,10.15
2022-09-06T04:08:53.732Z,10.07
2022-09-06T04:11:59.030Z,9.87
2022-09-06T04:15:04.626Z,9.91
2022-09-06T04:18:12.428Z,9.88
2022-09-06T04:21:19.138Z,10.14
2022-09-06T04:24:24.415Z,10.21
2022-09-06T04:27:29.798Z,10.24
2022-09-06T04:30:35.190Z,10.18
2022-09-06T04:33:40.934Z,10.20
2022-09-06T04:36:48.556Z,10.24
2022-09-06T04:39:54.335Z,10.22
2022-09-06T04:42:59.966Z,10.14
2022-09-06T04:46:07.209Z,10.15
2022-09-06T04:49:12.503Z,10.31
2022-09-06T04:52:19.240Z,10.35
2022-09-06T04:55:26.439Z,10.41
2022-09-06T04:58:31.982Z,10.42
2022-09-06T05:01:37.320Z,10.67
2022-09-06T05:04:42.621Z,10.79
2022-09-06T05:07:49.661Z,10.78
2022-09-06T05:11:12.142Z,10.75
2022-09-06T05:14:17.413Z,10.82
2022-09-06T05:17:22.650Z,10.81
2022-09-06T05:20:28.131Z,10.78
2022-09-06T05:23:34.863Z,10.66
2022-09-06T05:26:40.142Z,10.64
2022-09-06T05:29:45.388Z,10.72
2022-09-06T05:32:51.835Z,10.80
2022-09-06T05:35:57.135Z,10.84
2022-09-06T05:39:03.938Z,10.90
2022-09-06T05:42:09.324Z,10.96
2022-09-06T05:45:14.868Z,10.97
2022-09-06T05:48:20.321Z,11.06
2022-09-06T05:51:25.626Z,11.06
2022-09-06T05:54:32.202Z,11.10
2022-09-06T05:57:37.659Z,11.27
2022-09-06T06:00:42.918Z,11.40
2022-09-06T06:03:53.730Z,11.49
2022-09-06T06:06:59.009Z,11.63
2022-09-06T06:10:08.050Z,11.67
2022-09-06T06:13:15.339Z,11.78
2022-09-06T06:16:23.082Z,11.85
2022-09-06T06:19:28.841Z,11.89
2022-09-06T06:22:34.167Z,12.04
2022-09-06T06:25:40.853Z,12.21
2022-09-06T06:28:46.574Z,12.22
2022-09-06T06:31:52.189Z,12.40
2022-09-06T06:34:59.039Z,12.76
2022-09-06T06:38:04.239Z,12.77
2022-09-06T06:41:12.903Z,13.02
2022-09-06T06:44:18.166Z,13.07
2022-09-06T06:47:23.589Z,13.30
2022-09-06T06:50:28.853Z,13.54
2022-09-06T06:53:35.323Z,13.72
2022-09-06T06:56:42.322Z,14.23
2022-09-06T06:59:47.827Z,14.08
2022-09-06T07:02:55.846Z,14.18
2022-09-06T07:06:17.188Z,14.20
2022-09-06T07:09:23.429Z,14.20
2022-09-06T07:12:30.764Z,14.25
2022-09-06T07:15:36.132Z,14.27
2022-09-06T07:18:42.979Z,14.31
2022-09-06T07:21:48.233Z,14.37
2022-09-06T07:24:53.776Z,14.34
2022-09-06T07:28:05.733Z,14.43
2022-09-06T07:34:39.659Z,14.56
2022-09-06T07:37:45.117Z,14.63
2022-09-06T07:40:55.190Z,14.59
2022-09-06T07:44:01.739Z,14.59
2022-09-06T07:50:50.174Z,14.67
2022-09-06T07:54:13.340Z,14.92
2022-09-06T07:57:22.299Z,14.90
2022-09-06T08:00:29.265Z,14.92
2022-09-06T08:03:34.837Z,14.96
2022-09-06T08:10:09.752Z,15.12
2022-09-06T08:13:18.139Z,15.16
2022-09-06T08:16:28.017Z,15.17
2022-09-06T08:19:34.442Z,15.24
2022-09-06T08:22:39.948Z,15.27
2022-09-06T08:25:45.131Z,15.32
2022-09-06T08:28:55.917Z,15.50
2022-09-06T08:32:02.698Z,15.59
2022-09-06T08:35:11.090Z,15.45
2022-09-06T08:38:17.298Z,15.38
2022-09-06T08:41:27.630Z,15.37
2022-09-06T08:48:04.349Z,15.49
2022-09-06T08:51:38.611Z,15.52
2022-09-06T08:54:54.173Z,15.69
2022-09-06T08:58:17.086Z,15.68
2022-09-06T09:01:28.883Z,15.59
2022-09-06T09:04:37.322Z,15.89
2022-09-06T09:07:46.262Z,15.80
2022-09-06T09:10:54.661Z,15.78
2022-09-06T09:14:05.466Z,15.99
2022-09-06T09:17:20.406Z,16.00
2022-09-06T09:20:27.514Z,16.14
2022-09-06T09:23:33.110Z,16.06
2022-09-06T09:26:49.482Z,16.17
2022-09-06T09:33:30.924Z,16.11
2022-09-06T09:36:37.750Z,16.16
2022-09-06T09:39:43.226Z,16.24
2022-09-06T09:42:48.614Z,16.33
2022-09-06T09:46:15.798Z,16.33
2022-09-06T09:49:31.042Z,16.49
2022-09-06T09:52:45.503Z,16.60
2022-09-06T09:55:51.636Z,16.54
2022-09-06T09:58:58.839Z,16.50
2022-09-06T10:02:19.914Z,16.53
2022-09-06T10:05:25.436Z,16.53
2022-09-06T10:08:34.982Z,16.61
2022-09-06T10:11:42.769Z,16.77
2022-09-06T10:14:49.867Z,16.71
2022-09-06T10:17:55.415Z,16.77
2022-09-06T10:21:03.483Z,16.90
2022-09-06T10:24:31.960Z,17.01
2022-09-06T10:27:42.535Z,16.96
2022-09-06T10:31:07.840Z,17.02
2022-09-06T10:34:45.499Z,17.01
2022-09-06T10:38:03.982Z,17.06
2022-09-06T10:41:29.571Z,17.13
2022-09-06T10:44:50.351Z,17.15
2022-09-06T10:48:02.984Z,17.22
2022-09-06T10:51:18.702Z,17.27
2022-09-06T10:54:25.284Z,17.41
2022-09-06T11:01:02.925Z,17.71
2022-09-06T11:04:13.375Z,17.74
2022-09-06T11:07:29.565Z,17.74
2022-09-06T11:10:37.753Z,17.70
2022-09-06T11:13:44.771Z,17.81
2022-09-06T11:16:53.196Z,17.81
2022-09-06T11:20:07.106Z,17.83
2022-09-06T11:23:39.079Z,17.90
2022-09-06T11:26:54.079Z,17.97
2022-09-06T11:30:02.621Z,18.01
2022-09-06T11:33:19.058Z,18.04
2022-09-06T11:36:35.678Z,18.19
2022-09-06T11:43:19.974Z,18.29
2022-09-06T11:47:07.547Z,18.35
2022-09-06T11:51:06.613Z,18.33
2022-09-06T11:54:27.486Z,18.38
2022-09-06T11:57:33.150Z,18.49
2022-09-06T12:00:38.383Z,18.50
2022-09-06T12:04:08.232Z,18.50
2022-09-06T12:07:15.098Z,18.50
2022-09-06T12:10:47.561Z,18.57
2022-09-06T12:13:59.487Z,18.60
2022-09-06T12:17:29.322Z,18.68
2022-09-06T12:21:05.158Z,18.67
2022-09-06T12:24:56.199Z,18.69
2022-09-06T12:28:02.990Z,18.90
2022-09-06T12:31:40.008Z,18.78
2022-09-06T12:34:46.354Z,18.78
2022-09-06T12:37:56.077Z,18.89
2022-09-06T12:41:04.068Z,18.97
2022-09-06T12:44:09.927Z,19.10
2022-09-06T12:47:18.699Z,19.07
2022-09-06T12:50:26.052Z,19.08
2022-09-06T12:53:31.938Z,19.17
2022-09-06T12:56:38.786Z,19.16
2022-09-06T12:59:54.799Z,19.19
2022-09-06T13:03:07.215Z,19.22
2022-09-06T13:06:24.545Z,19.38
2022-09-06T13:09:33.560Z,19.36
2022-09-06T13:12:43.352Z,19.28
2022-09-06T13:15:48.757Z,19.17
2022-09-06T13:18:54.598Z,19.22
2022-09-06T13:22:00.908Z,19.23
2022-09-06T13:25:08.143Z,19.21
2022-09-06T13:28:28.424Z,19.25
2022-09-06T13:31:34.157Z,19.31
2022-09-06T13:34:40.854Z,19.34
2022-09-06T13:37:49.498Z,19.32
2022-09-06T13:41:10.954Z,19.30
2022-09-06T13:44:31.162Z,19.38
2022-09-06T13:47:36.559Z,19.60
2022-09-06T13:50:42.498Z,19.56
2022-09-06T13:53:47.873Z,19.56
2022-09-06T13:56:53.244Z,19.66
2022-09-06T14:00:00.265Z,19.58
2022-09-06T14:03:05.717Z,19.47
2022-09-06T14:06:12.594Z,19.47
2022-09-06T14:09:18.219Z,19.48
2022-09-06T14:12:23.674Z,19.52
2022-09-06T14:15:30.654Z,19.54
2022-09-06T14:18:36.288Z,19.56
2022-09-06T14:21:41.638Z,19.64
2022-09-06T14:24:48.797Z,19.66
2022-09-06T14:27:54.300Z,19.65
2022-09-06T14:31:11.688Z,19.64
2022-09-06T14:34:17.487Z,19.64
2022-09-06T14:37:23.054Z,19.59
2022-09-06T14:40:28.469Z,19.61
2022-09-06T14:43:34.070Z,19.61
2022-09-06T14:46:40.758Z,19.63
2022-09-06T14:49:46.283Z,19.58
2022-09-06T14:52:51.519Z,19.67
2022-09-06T14:56:03.939Z,19.62
2022-09-06T14:59:09.857Z,19.63
2022-09-06T15:02:16.642Z,19.59
2022-09-06T15:05:22.002Z,19.62
2022-09-06T15:08:27.293Z,19.58
2022-09-06T15:11:35.441Z,19.55
2022-09-06T15:14:41.157Z,19.63
2022-09-06T15:17:48.084Z,19.56
2022-09-06T15:20:53.244Z,19.53
2022-09-06T15:23:58.966Z,19.53
2022-09-06T15:27:05.421Z,19.55
2022-09-06T15:30:12.113Z,19.42
2022-09-06T15:33:19.733Z,19.36
2022-09-06T15:36:25.059Z,19.30
2022-09-06T15:39:30.387Z,19.41
2022-09-06T15:42:36.131Z,19.39
2022-09-06T15:45:50.123Z,19.39
2022-09-06T15:48:56.822Z,19.40
2022-09-06T15:52:06.038Z,19.35
2022-09-06T15:55:29.983Z,19.33
2022-09-06T15:58:35.560Z,19.39
2022-09-06T16:01:41.075Z,19.28
2022-09-06T16:04:48.986Z,19.37
2022-09-06T16:07:54.250Z,19.30
2022-09-06T16:10:59.578Z,19.27
2022-09-06T16:14:05.958Z,19.17
2022-09-06T16:17:12.395Z,19.18
2022-09-06T16:20:19.214Z,19.11
2022-09-06T16:23:24.737Z,19.08
2022-09-06T16:26:33.251Z,19.03
2022-09-06T16:29:38.990Z,18.93
2022-09-06T16:32:44.303Z,19.02
2022-09-06T16:35:50.928Z,19.05
2022-09-06T16:38:57.694Z,18.96
2022-09-06T16:42:03.342Z,18.97
2022-09-06T16:45:10.273Z,18.96
2022-09-06T16:48:16.184Z,18.86
2022-09-06T16:51:28.355Z,18.76
2022-09-06T16:54:33.868Z,18.72
2022-09-06T16:57:40.515Z,18.65
2022-09-06T17:00:46.675Z,18.67
2022-09-06T17:03:52.280Z,18.67
2022-09-06T17:06:59.062Z,18.58
2022-09-06T17:10:05.151Z,18.42
2022-09-06T17:13:10.771Z,18.39
2022-09-06T17:16:34.308Z,18.27
2022-09-06T17:19:41.747Z,18.16
2022-09-06T17:22:51.348Z,18.05
2022-09-06T17:25:56.606Z,17.96
2022-09-06T17:29:01.940Z,17.87
2022-09-06T17:32:10.304Z,17.80
2022-09-06T17:35:15.942Z,17.76
2022-09-06T17:38:22.738Z,17.72
2022-09-06T17:41:31.154Z,17.70
2022-09-06T17:44:36.809Z,17.66
2022-09-06T17:47:42.026Z,17.59
2022-09-06T17:50:47.685Z,17.43
2022-09-06T17:53:54.846Z,17.40
2022-09-06T17:57:00.358Z,17.34
2022-09-06T18:00:06.985Z,17.27
2022-09-06T18:03:15.179Z,17.24
2022-09-06T18:06:23.774Z,17.25
2022-09-06T18:09:30.797Z,17.10
2022-09-06T18:12:36.051Z,17.14
2022-09-06T18:15:41.850Z,17.04
2022-09-06T18:18:52.151Z,17.02
2022-09-06T18:21:57.773Z,17.01
2022-09-06T18:25:04.597Z,17.08
2022-09-06T18:28:10.313Z,17.06
2022-09-06T18:31:20.693Z,16.97
2022-09-06T18:34:26.190Z,17.01
2022-09-06T18:37:31.543Z,17.01
2022-09-06T18:40:38.366Z,16.98
2022-09-06T18:43:43.737Z,16.92
2022-09-06T18:46:49.205Z,16.84
2022-09-06T18:49:54.523Z,16.98
2022-09-06T18:52:59.688Z,16.88
2022-09-06T18:56:07.497Z,16.91
2022-09-06T18:59:14.722Z,16.85
2022-09-06T19:02:20.627Z,16.81
2022-09-06T19:05:26.229Z,16.63
2022-09-06T19:08:31.695Z,16.56
2022-09-06T19:11:38.876Z,16.58
2022-09-06T19:14:44.323Z,16.43
2022-09-06T19:17:50.491Z,16.35
2022-09-06T19:20:59.285Z,16.44
2022-09-06T19:24:07.774Z,16.50
2022-09-06T19:27:14.369Z,16.49
2022-09-06T19:30:20.387Z,16.50
2022-09-06T19:33:31.087Z,16.42
2022-09-06T19:36:41.042Z,16.50
2022-09-06T19:39:48.714Z,16.49
2022-09-06T19:42:55.613Z,16.42
2022-09-06T19:46:04.167Z,16.40
2022-09-06T19:49:10.450Z,16.33
2022-09-06T19:52:15.716Z,16.32
2022-09-06T19:55:21.499Z,16.26
2022-09-06T19:58:29.367Z,16.26
2022-09-06T20:01:37.441Z,16.19
2022-09-06T20:04:42.752Z,16.19
2022-09-06T20:07:48.023Z,16.04
2022-09-06T20:10:54.477Z,15.84
2022-09-06T20:14:02.038Z,15.97
2022-09-06T20:17:32.347Z,15.94
2022-09-06T20:20:34.487Z,15.90
2022-09-06T20:23:39.846Z,15.87
2022-09-06T20:26:45.423Z,15.81
2022-09-06T20:29:52.020Z,15.70
2022-09-06T20:32:57.308Z,15.71
2022-09-06T20:36:04.358Z,15.65
2022-09-06T20:39:11.050Z,15.56
2022-09-06T20:42:16.422Z,15.56
2022-09-06T20:45:25.322Z,15.48
2022-09-06T20:48:33.341Z,15.48
2022-09-06T20:51:43.325Z,15.39
2022-09-06T20:54:50.075Z,15.33
2022-09-06T20:57:55.399Z,15.35
2022-09-06T21:01:02.431Z,15.26
2022-09-06T21:04:09.650Z,15.18
2022-09-06T21:07:16.323Z,15.19
2022-09-06T21:10:21.539Z,15.05
2022-09-06T21:13:28.346Z,15.21
2022-09-06T21:16:35.556Z,15.18
2022-09-06T21:19:41.443Z,15.11
2022-09-06T21:22:46.782Z,15.10
2022-09-06T21:25:55.613Z,14.90
2022-09-06T21:29:01.394Z,14.97
2022-09-06T21:32:08.428Z,14.92
2022-09-06T21:35:13.644Z,14.91
2022-09-06T21:38:19.198Z,14.90
2022-09-06T21:41:25.511Z,14.92
2022-09-06T21:44:30.798Z,14.86
2022-09-06T21:47:38.291Z,14.81
2022-09-06T21:50:47.744Z,14.69
2022-09-06T21:53:53.830Z,14.66
2022-09-06T21:56:59.053Z,14.60
2022-09-06T22:00:05.906Z,14.61
2022-09-06T22:03:17.570Z,14.59
2022-09-06T22:06:25.921Z,14.61
2022-09-06T22:09:31.157Z,14.48
2022-09-06T22:12:36.454Z,14.51
2022-09-06T22:15:41.901Z,14.49
2022-09-06T22:18:49.956Z,14.46
2022-09-06T22:21:56.790Z,14.40
2022-09-06T22:25:02.119Z,14.35
2022-09-06T22:28:08.139Z,14.33
2022-09-06T22:31:14.835Z,14.35
2022-09-06T22:34:21.657Z,14.31
2022-09-06T22:37:27.167Z,14.33
2022-09-06T22:40:32.655Z,14.37
2022-09-06T22:43:38.704Z,14.32
2022-09-06T22:46:44.032Z,14.17
2022-09-06T22:49:51.719Z,14.18
2022-09-06T22:52:57.947Z,14.16
2022-09-06T22:56:04.458Z,14.11
2022-09-06T22:59:10.001Z,14.13
2022-09-06T23:02:15.180Z,14.09
2022-09-06T23:05:22.876Z,14.11
2022-09-06T23:08:29.027Z,14.08
2022-09-06T23:11:34.358Z,14.05
2022-09-06T23:14:39.562Z,14.09
2022-09-06T23:17:45.255Z,14.05
2022-09-06T23:20:51.902Z,14.03
2022-09-06T23:23:57.951Z,14.05
2022-09-06T23:27:04.834Z,14.06
2022-09-06T23:30:13.612Z,14.00
2022-09-06T23:33:20.726Z,13.97
2022-09-06T23:36:28.428Z,13.96
2022-09-06T23:39:33.695Z,13.92
2022-09-06T23:42:39.192Z,13.90
2022-09-06T23:45:44.888Z,13.91
2022-09-06T23:48:50.519Z,13.92
2022-09-06T23:51:57.179Z,13.91
2022-09-06T23:55:02.486Z,13.86
2022-09-06T23:58:08.879Z,13.77
